sensor_id;sensor_type;location;lat;lon;timestamp;pressure;altitude;pressure_sealevel;temperature;humidity
77723;BME280;67811;42.656;23.394;2023-02-18T00:00:17;95835.69;;;2.72;58.15
77723;BME280;67811;42.656;23.394;2023-02-18T00:02:48;95833.28;;;2.69;58.14
77723;BME280;67811;42.656;23.394;2023-02-18T00:05:19;95837.13;;;2.64;58.57
77723;BME280;67811;42.656;23.394;2023-02-18T00:07:49;95830.94;;;2.66;58.39
77723;BME280;67811;42.656;23.394;2023-02-18T00:10:20;95826.53;;;2.66;58.53
77723;BME280;67811;42.656;23.394;2023-02-18T00:12:52;95821.03;;;2.58;58.98
77723;BME280;67811;42.656;23.394;2023-02-18T00:15:23;95821.41;;;2.64;58.57
77723;BME280;67811;42.656;23.394;2023-02-18T00:17:53;95815.69;;;2.59;58.73
77723;BME280;67811;42.656;23.394;2023-02-18T00:20:24;95810.34;;;2.61;58.73
77723;BME280;67811;42.656;23.394;2023-02-18T00:22:55;95801.06;;;2.57;58.79
77723;BME280;67811;42.656;23.394;2023-02-18T00:25:25;95806.63;;;2.52;58.94
77723;BME280;67811;42.656;23.394;2023-02-18T00:27:57;95791.56;;;2.67;58.31
77723;BME280;67811;42.656;23.394;2023-02-18T00:30:28;95792.38;;;2.68;58.57
77723;BME280;67811;42.656;23.394;2023-02-18T00:32:58;95782.03;;;2.66;58.43
77723;BME280;67811;42.656;23.394;2023-02-18T00:35:29;95782.66;;;2.58;58.49
77723;BME280;67811;42.656;23.394;2023-02-18T00:37:59;95778.81;;;2.62;58.63
77723;BME280;67811;42.656;23.394;2023-02-18T00:40:30;95778.94;;;2.61;58.55
77723;BME280;67811;42.656;23.394;2023-02-18T00:43:02;95780.59;;;2.62;58.34
77723;BME280;67811;42.656;23.394;2023-02-18T00:45:33;95785.59;;;2.76;57.75
77723;BME280;67811;42.656;23.394;2023-02-18T00:48:03;95782.25;;;2.74;57.76
77723;BME280;67811;42.656;23.394;2023-02-18T00:50:34;95770.13;;;2.62;58.33
77723;BME280;67811;42.656;23.394;2023-02-18T00:53:04;95778.34;;;2.57;58.39
77723;BME280;67811;42.656;23.394;2023-02-18T00:55:38;95776.47;;;2.59;58.49
77723;BME280;67811;42.656;23.394;2023-02-18T00:58:10;95769.78;;;2.55;58.85
77723;BME280;67811;42.656;23.394;2023-02-18T01:00:41;95780.25;;;2.55;58.31
77723;BME280;67811;42.656;23.394;2023-02-18T01:03:12;95767.78;;;2.48;58.99
77723;BME280;67811;42.656;23.394;2023-02-18T01:05:43;95788.22;;;2.31;59.43
77723;BME280;67811;42.656;23.394;2023-02-18T01:08:14;95771.78;;;2.41;59.15
77723;BME280;67811;42.656;23.394;2023-02-18T01:10:46;95782.16;;;2.42;59.02
77723;BME280;67811;42.656;23.394;2023-02-18T01:13:19;95773.38;;;2.43;59.22
77723;BME280;67811;42.656;23.394;2023-02-18T01:15:51;95770.75;;;2.54;58.38
77723;BME280;67811;42.656;23.394;2023-02-18T01:18:24;95769.91;;;2.65;58.07
77723;BME280;67811;42.656;23.394;2023-02-18T01:20:56;95775.84;;;2.78;57.33
77723;BME280;67811;42.656;23.394;2023-02-18T01:23:27;95767.88;;;2.80;57.78
77723;BME280;67811;42.656;23.394;2023-02-18T01:25:57;95771.94;;;2.61;58.20
77723;BME280;67811;42.656;23.394;2023-02-18T01:28:31;95773.72;;;2.50;58.48
77723;BME280;67811;42.656;23.394;2023-02-18T01:31:05;95770.41;;;2.48;58.96
77723;BME280;67811;42.656;23.394;2023-02-18T01:33:36;95764.56;;;2.33;59.29
77723;BME280;67811;42.656;23.394;2023-02-18T01:36:07;95768.81;;;2.23;59.94
77723;BME280;67811;42.656;23.394;2023-02-18T01:38:38;95753.13;;;2.23;59.93
77723;BME280;67811;42.656;23.394;2023-02-18T01:41:09;95769.66;;;2.23;59.85
77723;BME280;67811;42.656;23.394;2023-02-18T01:43:41;95764.31;;;2.36;59.28
77723;BME280;67811;42.656;23.394;2023-02-18T01:46:15;95778.34;;;2.35;59.55
77723;BME280;67811;42.656;23.394;2023-02-18T01:48:49;95776.06;;;2.30;59.48
77723;BME280;67811;42.656;23.394;2023-02-18T01:51:24;95774.75;;;2.25;60.02
77723;BME280;67811;42.656;23.394;2023-02-18T01:53:58;95785.94;;;2.27;59.67
77723;BME280;67811;42.656;23.394;2023-02-18T01:56:35;95788.06;;;2.22;59.55
77723;BME280;67811;42.656;23.394;2023-02-18T01:59:10;95794.72;;;2.15;60.19
77723;BME280;67811;42.656;23.394;2023-02-18T02:01:43;95788.19;;;2.09;60.70
77723;BME280;67811;42.656;23.394;2023-02-18T02:04:15;95786.88;;;2.15;60.50
77723;BME280;67811;42.656;23.394;2023-02-18T02:06:45;95786.63;;;2.18;60.25
77723;BME280;67811;42.656;23.394;2023-02-18T02:09:18;95783.53;;;2.13;60.14
77723;BME280;67811;42.656;23.394;2023-02-18T02:12:05;95779.50;;;2.20;59.74
77723;BME280;67811;42.656;23.394;2023-02-18T02:15:04;95772.13;;;2.14;59.54
77723;BME280;67811;42.656;23.394;2023-02-18T02:17:45;95772.59;;;2.19;59.03
77723;BME280;67811;42.656;23.394;2023-02-18T02:35:44;95775.00;;;2.22;58.79
77723;BME280;67811;42.656;23.394;2023-02-18T02:38:24;95765.09;;;2.14;59.17
77723;BME280;67811;42.656;23.394;2023-02-18T02:41:07;95769.97;;;2.07;59.47
77723;BME280;67811;42.656;23.394;2023-02-18T02:43:47;95766.84;;;1.91;60.19
77723;BME280;67811;42.656;23.394;2023-02-18T02:46:27;95758.66;;;1.84;60.57
77723;BME280;67811;42.656;23.394;2023-02-18T02:49:07;95748.31;;;1.83;60.45
77723;BME280;67811;42.656;23.394;2023-02-18T02:51:46;95749.22;;;1.60;61.45
77723;BME280;67811;42.656;23.394;2023-02-18T02:54:21;95750.50;;;1.54;62.29
77723;BME280;67811;42.656;23.394;2023-02-18T02:57:05;95755.81;;;1.52;62.26
77723;BME280;67811;42.656;23.394;2023-02-18T02:59:39;95757.84;;;1.49;62.26
77723;BME280;67811;42.656;23.394;2023-02-18T03:02:20;95759.16;;;1.54;62.04
77723;BME280;67811;42.656;23.394;2023-02-18T03:05:00;95774.09;;;1.52;62.43
77723;BME280;67811;42.656;23.394;2023-02-18T03:10:55;95769.81;;;1.51;62.96
77723;BME280;67811;42.656;23.394;2023-02-18T03:13:48;95772.38;;;1.40;62.78
77723;BME280;67811;42.656;23.394;2023-02-18T03:16:25;95762.06;;;1.39;63.06
77723;BME280;67811;42.656;23.394;2023-02-18T03:19:03;95764.09;;;1.46;62.75
77723;BME280;67811;42.656;23.394;2023-02-18T03:21:39;95768.78;;;1.54;62.42
77723;BME280;67811;42.656;23.394;2023-02-18T03:24:15;95778.34;;;1.53;62.76
77723;BME280;67811;42.656;23.394;2023-02-18T03:26:50;95787.59;;;1.46;62.68
77723;BME280;67811;42.656;23.394;2023-02-18T03:29:23;95796.94;;;1.38;63.10
77723;BME280;67811;42.656;23.394;2023-02-18T03:31:58;95800.84;;;1.32;63.88
77723;BME280;67811;42.656;23.394;2023-02-18T03:34:31;95806.28;;;1.29;64.02
77723;BME280;67811;42.656;23.394;2023-02-18T03:37:04;95816.31;;;1.22;64.26
77723;BME280;67811;42.656;23.394;2023-02-18T03:39:38;95813.72;;;1.10;65.15
77723;BME280;67811;42.656;23.394;2023-02-18T03:42:11;95812.59;;;1.14;64.84
77723;BME280;67811;42.656;23.394;2023-02-18T03:44:41;95815.25;;;1.25;64.17
77723;BME280;67811;42.656;23.394;2023-02-18T03:47:12;95813.53;;;1.37;63.59
77723;BME280;67811;42.656;23.394;2023-02-18T03:49:43;95816.38;;;1.34;63.86
77723;BME280;67811;42.656;23.394;2023-02-18T03:52:13;95830.41;;;1.33;63.57
77723;BME280;67811;42.656;23.394;2023-02-18T03:54:45;95829.66;;;1.30;63.50
77723;BME280;67811;42.656;23.394;2023-02-18T03:57:16;95825.25;;;1.31;63.37
77723;BME280;67811;42.656;23.394;2023-02-18T03:59:47;95825.25;;;1.31;63.50
77723;BME280;67811;42.656;23.394;2023-02-18T04:02:17;95827.91;;;1.18;64.45
77723;BME280;67811;42.656;23.394;2023-02-18T04:04:48;95815.06;;;1.15;64.73
77723;BME280;67811;42.656;23.394;2023-02-18T04:07:18;95808.63;;;1.08;64.94
77723;BME280;67811;42.656;23.394;2023-02-18T04:09:50;95818.78;;;1.00;65.68
77723;BME280;67811;42.656;23.394;2023-02-18T04:12:21;95817.34;;;0.96;65.78
77723;BME280;67811;42.656;23.394;2023-02-18T04:14:52;95812.75;;;0.87;65.97
77723;BME280;67811;42.656;23.394;2023-02-18T04:17:22;95816.75;;;0.79;66.26
77723;BME280;67811;42.656;23.394;2023-02-18T04:19:53;95800.91;;;0.70;66.69
77723;BME280;67811;42.656;23.394;2023-02-18T04:22:23;95810.38;;;0.71;67.01
77723;BME280;67811;42.656;23.394;2023-02-18T04:24:55;95799.31;;;0.80;66.76
77723;BME280;67811;42.656;23.394;2023-02-18T04:27:26;95798.75;;;0.88;66.55
77723;BME280;67811;42.656;23.394;2023-02-18T04:29:57;95807.47;;;0.75;66.84
77723;BME280;67811;42.656;23.394;2023-02-18T04:32:27;95788.47;;;0.73;66.57
77723;BME280;67811;42.656;23.394;2023-02-18T04:34:58;95786.72;;;0.74;66.34
77723;BME280;67811;42.656;23.394;2023-02-18T04:37:28;95783.91;;;0.77;66.23
77723;BME280;67811;42.656;23.394;2023-02-18T04:40:00;95796.59;;;0.82;65.83
77723;BME280;67811;42.656;23.394;2023-02-18T04:42:31;95790.53;;;0.81;65.72
77723;BME280;67811;42.656;23.394;2023-02-18T04:45:02;95790.09;;;0.87;65.60
77723;BME280;67811;42.656;23.394;2023-02-18T04:47:33;95793.22;;;0.92;65.33
77723;BME280;67811;42.656;23.394;2023-02-18T04:50:05;95799.59;;;1.01;65.65
77723;BME280;67811;42.656;23.394;2023-02-18T04:52:36;95803.91;;;0.89;66.08
77723;BME280;67811;42.656;23.394;2023-02-18T04:55:08;95799.00;;;0.85;66.27
77723;BME280;67811;42.656;23.394;2023-02-18T04:57:39;95790.63;;;0.92;66.16
77723;BME280;67811;42.656;23.394;2023-02-18T05:00:13;95803.56;;;0.94;65.77
77723;BME280;67811;42.656;23.394;2023-02-18T05:02:46;95810.06;;;0.88;66.27
77723;BME280;67811;42.656;23.394;2023-02-18T05:05:16;95809.31;;;0.86;66.78
77723;BME280;67811;42.656;23.394;2023-02-18T05:07:47;95805.31;;;0.93;66.80
77723;BME280;67811;42.656;23.394;2023-02-18T05:10:19;95811.81;;;1.00;66.56
77723;BME280;67811;42.656;23.394;2023-02-18T05:12:50;95811.75;;;1.13;65.58
77723;BME280;67811;42.656;23.394;2023-02-18T05:15:20;95802.53;;;1.20;64.63
77723;BME280;67811;42.656;23.394;2023-02-18T05:17:51;95782.94;;;1.39;63.51
77723;BME280;67811;42.656;23.394;2023-02-18T05:20:22;95796.16;;;1.48;63.72
77723;BME280;67811;42.656;23.394;2023-02-18T05:22:52;95799.25;;;1.53;63.30
77723;BME280;67811;42.656;23.394;2023-02-18T05:25:24;95802.31;;;1.47;63.56
77723;BME280;67811;42.656;23.394;2023-02-18T05:27:55;95796.38;;;1.45;63.97
77723;BME280;67811;42.656;23.394;2023-02-18T05:30:25;95784.38;;;1.43;63.63
77723;BME280;67811;42.656;23.394;2023-02-18T05:32:56;95796.25;;;1.47;63.49
77723;BME280;67811;42.656;23.394;2023-02-18T05:35:27;95800.66;;;1.46;63.38
77723;BME280;67811;42.656;23.394;2023-02-18T05:37:57;95799.16;;;1.55;63.69
77723;BME280;67811;42.656;23.394;2023-02-18T05:40:29;95803.19;;;1.59;63.21
77723;BME280;67811;42.656;23.394;2023-02-18T05:43:00;95813.44;;;1.62;63.38
77723;BME280;67811;42.656;23.394;2023-02-18T05:45:31;95799.09;;;1.68;62.79
77723;BME280;67811;42.656;23.394;2023-02-18T05:48:01;95799.78;;;1.70;62.71
77723;BME280;67811;42.656;23.394;2023-02-18T05:50:32;95798.88;;;1.71;62.98
77723;BME280;67811;42.656;23.394;2023-02-18T05:53:03;95806.94;;;1.68;63.09
77723;BME280;67811;42.656;23.394;2023-02-18T05:55:35;95811.72;;;1.85;62.84
77723;BME280;67811;42.656;23.394;2023-02-18T05:58:05;95820.31;;;1.87;62.20
77723;BME280;67811;42.656;23.394;2023-02-18T06:00:36;95812.00;;;1.93;62.04
77723;BME280;67811;42.656;23.394;2023-02-18T06:03:06;95822.97;;;1.98;61.65
77723;BME280;67811;42.656;23.394;2023-02-18T06:05:37;95817.28;;;2.04;61.47
77723;BME280;67811;42.656;23.394;2023-02-18T06:08:08;95811.94;;;2.17;60.98
77723;BME280;67811;42.656;23.394;2023-02-18T06:10:40;95806.63;;;2.41;59.75
77723;BME280;67811;42.656;23.394;2023-02-18T06:13:11;95816.66;;;2.58;58.94
77723;BME280;67811;42.656;23.394;2023-02-18T06:15:42;95817.25;;;2.73;58.89
77723;BME280;67811;42.656;23.394;2023-02-18T06:18:13;95814.53;;;2.86;59.35
77723;BME280;67811;42.656;23.394;2023-02-18T06:20:45;95808.53;;;2.95;58.90
77723;BME280;67811;42.656;23.394;2023-02-18T06:23:16;95812.00;;;2.96;58.78
77723;BME280;67811;42.656;23.394;2023-02-18T06:25:49;95806.41;;;3.00;57.89
77723;BME280;67811;42.656;23.394;2023-02-18T06:28:19;95807.84;;;2.93;57.85
77723;BME280;67811;42.656;23.394;2023-02-18T06:30:50;95804.03;;;2.97;58.51
77723;BME280;67811;42.656;23.394;2023-02-18T06:33:21;95807.69;;;3.06;58.73
77723;BME280;67811;42.656;23.394;2023-02-18T06:35:53;95802.25;;;2.98;58.96
77723;BME280;67811;42.656;23.394;2023-02-18T06:38:24;95807.34;;;2.99;58.82
77723;BME280;67811;42.656;23.394;2023-02-18T06:40:56;95801.97;;;3.23;58.70
77723;BME280;67811;42.656;23.394;2023-02-18T06:43:26;95807.03;;;3.47;57.73
77723;BME280;67811;42.656;23.394;2023-02-18T06:45:57;95813.25;;;3.67;57.46
77723;BME280;67811;42.656;23.394;2023-02-18T06:48:28;95797.91;;;3.74;56.49
77723;BME280;67811;42.656;23.394;2023-02-18T06:50:59;95793.03;;;3.90;56.50
77723;BME280;67811;42.656;23.394;2023-02-18T06:53:29;95786.63;;;3.83;56.66
77723;BME280;67811;42.656;23.394;2023-02-18T06:56:01;95796.31;;;4.03;56.91
77723;BME280;67811;42.656;23.394;2023-02-18T06:58:32;95794.22;;;4.18;56.27
77723;BME280;67811;42.656;23.394;2023-02-18T07:01:03;95802.91;;;4.18;55.78
77723;BME280;67811;42.656;23.394;2023-02-18T07:03:34;95798.38;;;4.41;54.82
77723;BME280;67811;42.656;23.394;2023-02-18T07:06:05;95792.47;;;4.49;54.64
77723;BME280;67811;42.656;23.394;2023-02-18T07:08:35;95796.25;;;4.56;54.89
77723;BME280;67811;42.656;23.394;2023-02-18T07:11:08;95798.66;;;5.09;54.42
77723;BME280;67811;42.656;23.394;2023-02-18T07:13:38;95799.16;;;5.53;51.54
77723;BME280;67811;42.656;23.394;2023-02-18T07:16:10;95790.91;;;5.77;51.56
77723;BME280;67811;42.656;23.394;2023-02-18T07:18:40;95787.47;;;6.05;49.21
77723;BME280;67811;42.656;23.394;2023-02-18T07:21:11;95776.50;;;5.91;49.00
77723;BME280;67811;42.656;23.394;2023-02-18T07:23:42;95780.38;;;5.87;49.04
77723;BME280;67811;42.656;23.394;2023-02-18T07:26:14;95776.75;;;5.88;48.14
77723;BME280;67811;42.656;23.394;2023-02-18T07:28:44;95776.78;;;6.07;48.12
77723;BME280;67811;42.656;23.394;2023-02-18T07:31:15;95775.00;;;6.17;47.64
77723;BME280;67811;42.656;23.394;2023-02-18T07:33:45;95778.97;;;6.41;46.65
77723;BME280;67811;42.656;23.394;2023-02-18T07:36:16;95797.03;;;7.10;45.15
77723;BME280;67811;42.656;23.394;2023-02-18T07:38:47;95793.84;;;7.34;44.88
77723;BME280;67811;42.656;23.394;2023-02-18T07:41:20;95796.31;;;7.35;44.54
77723;BME280;67811;42.656;23.394;2023-02-18T07:43:51;95795.84;;;7.50;43.81
77723;BME280;67811;42.656;23.394;2023-02-18T07:46:21;95793.19;;;7.50;44.26
77723;BME280;67811;42.656;23.394;2023-02-18T07:48:52;95794.03;;;7.50;44.53
77723;BME280;67811;42.656;23.394;2023-02-18T07:51:22;95795.34;;;7.64;44.06
77723;BME280;67811;42.656;23.394;2023-02-18T07:53:53;95801.28;;;7.66;44.14
77723;BME280;67811;42.656;23.394;2023-02-18T07:56:25;95801.47;;;7.37;44.98
77723;BME280;67811;42.656;23.394;2023-02-18T07:58:56;95803.03;;;6.65;45.76
77723;BME280;67811;42.656;23.394;2023-02-18T08:01:26;95799.69;;;6.53;46.23
77723;BME280;67811;42.656;23.394;2023-02-18T08:03:57;95798.66;;;7.21;45.54
77723;BME280;67811;42.656;23.394;2023-02-18T08:06:30;95796.28;;;8.34;42.70
77723;BME280;67811;42.656;23.394;2023-02-18T08:09:03;95786.53;;;8.79;40.91
77723;BME280;67811;42.656;23.394;2023-02-18T08:11:35;95776.66;;;9.57;39.96
77723;BME280;67811;42.656;23.394;2023-02-18T08:14:06;95786.44;;;11.43;35.84
77723;BME280;67811;42.656;23.394;2023-02-18T08:16:36;95770.00;;;13.14;32.32
77723;BME280;67811;42.656;23.394;2023-02-18T08:19:07;95767.97;;;13.61;31.50
77723;BME280;67811;42.656;23.394;2023-02-18T08:21:38;95767.69;;;12.82;33.05
77723;BME280;67811;42.656;23.394;2023-02-18T08:24:08;95764.97;;;11.21;35.73
77723;BME280;67811;42.656;23.394;2023-02-18T08:26:41;95771.50;;;12.50;33.59
77723;BME280;67811;42.656;23.394;2023-02-18T08:29:11;95767.41;;;14.02;30.53
77723;BME280;67811;42.656;23.394;2023-02-18T08:31:42;95765.34;;;14.18;29.81
77723;BME280;67811;42.656;23.394;2023-02-18T08:34:12;95767.94;;;13.76;30.72
77723;BME280;67811;42.656;23.394;2023-02-18T08:36:43;95765.88;;;12.97;31.61
77723;BME280;67811;42.656;23.394;2023-02-18T08:39:14;95772.06;;;11.99;34.04
77723;BME280;67811;42.656;23.394;2023-02-18T08:41:46;95763.97;;;11.53;34.84
77723;BME280;67811;42.656;23.394;2023-02-18T08:44:17;95747.03;;;10.76;36.49
77723;BME280;67811;42.656;23.394;2023-02-18T08:46:47;95754.53;;;10.07;37.64
77723;BME280;67811;42.656;23.394;2023-02-18T08:49:18;95767.63;;;9.34;38.97
77723;BME280;67811;42.656;23.394;2023-02-18T08:51:48;95775.22;;;9.29;39.63
77723;BME280;67811;42.656;23.394;2023-02-18T08:54:19;95767.47;;;9.35;39.34
77723;BME280;67811;42.656;23.394;2023-02-18T08:56:54;95774.13;;;9.47;38.99
77723;BME280;67811;42.656;23.394;2023-02-18T08:59:25;95769.53;;;9.07;39.46
77723;BME280;67811;42.656;23.394;2023-02-18T09:01:55;95767.63;;;9.34;39.31
77723;BME280;67811;42.656;23.394;2023-02-18T09:04:26;95761.91;;;9.46;38.87
77723;BME280;67811;42.656;23.394;2023-02-18T09:06:56;95775.16;;;9.71;38.27
77723;BME280;67811;42.656;23.394;2023-02-18T09:09:27;95765.28;;;9.97;37.95
77723;BME280;67811;42.656;23.394;2023-02-18T09:11:59;95771.75;;;10.19;37.60
77723;BME280;67811;42.656;23.394;2023-02-18T09:14:30;95760.84;;;10.55;36.09
77723;BME280;67811;42.656;23.394;2023-02-18T09:17:00;95764.38;;;11.42;35.11
77723;BME280;67811;42.656;23.394;2023-02-18T09:19:31;95770.78;;;11.17;35.13
77723;BME280;67811;42.656;23.394;2023-02-18T09:22:02;95772.41;;;11.26;35.06
77723;BME280;67811;42.656;23.394;2023-02-18T09:24:35;95766.13;;;11.27;34.69
77723;BME280;67811;42.656;23.394;2023-02-18T09:27:07;95761.69;;;11.11;35.07
77723;BME280;67811;42.656;23.394;2023-02-18T09:29:39;95757.44;;;12.03;33.50
77723;BME280;67811;42.656;23.394;2023-02-18T09:32:10;95750.31;;;12.19;33.24
77723;BME280;67811;42.656;23.394;2023-02-18T09:34:41;95740.09;;;12.83;33.12
77723;BME280;67811;42.656;23.394;2023-02-18T09:37:11;95742.72;;;13.93;30.12
77723;BME280;67811;42.656;23.394;2023-02-18T09:39:42;95730.38;;;14.07;29.22
77723;BME280;67811;42.656;23.394;2023-02-18T09:42:17;95723.88;;;14.93;28.40
77723;BME280;67811;42.656;23.394;2023-02-18T09:44:49;95726.13;;;14.90;28.82
77723;BME280;67811;42.656;23.394;2023-02-18T09:47:22;95724.31;;;15.93;27.24
77723;BME280;67811;42.656;23.394;2023-02-18T09:49:57;95719.94;;;15.65;27.20
77723;BME280;67811;42.656;23.394;2023-02-18T09:52:31;95721.06;;;16.04;26.58
77723;BME280;67811;42.656;23.394;2023-02-18T09:55:15;95735.25;;;15.98;26.57
77723;BME280;67811;42.656;23.394;2023-02-18T09:57:49;95736.81;;;15.66;27.42
77723;BME280;67811;42.656;23.394;2023-02-18T10:00:22;95740.25;;;15.18;27.61
77723;BME280;67811;42.656;23.394;2023-02-18T10:03:00;95731.34;;;14.27;28.94
77723;BME280;67811;42.656;23.394;2023-02-18T10:05:32;95728.72;;;13.48;30.27
77723;BME280;67811;42.656;23.394;2023-02-18T10:08:05;95720.38;;;13.07;30.86
77723;BME280;67811;42.656;23.394;2023-02-18T10:10:39;95719.19;;;13.96;29.85
77723;BME280;67811;42.656;23.394;2023-02-18T10:13:14;95717.66;;;15.21;28.13
77723;BME280;67811;42.656;23.394;2023-02-18T10:15:46;95710.19;;;16.12;26.23
77723;BME280;67811;42.656;23.394;2023-02-18T10:18:25;95711.50;;;15.20;27.65
77723;BME280;67811;42.656;23.394;2023-02-18T10:21:02;95711.34;;;14.94;27.96
77723;BME280;67811;42.656;23.394;2023-02-18T10:23:37;95710.84;;;15.60;26.88
77723;BME280;67811;42.656;23.394;2023-02-18T10:26:12;95721.38;;;15.20;27.36
77723;BME280;67811;42.656;23.394;2023-02-18T10:28:46;95694.91;;;15.32;27.66
77723;BME280;67811;42.656;23.394;2023-02-18T10:31:21;95706.50;;;15.04;27.81
77723;BME280;67811;42.656;23.394;2023-02-18T10:33:59;95701.22;;;14.83;28.47
77723;BME280;67811;42.656;23.394;2023-02-18T10:36:35;95694.72;;;14.57;29.55
77723;BME280;67811;42.656;23.394;2023-02-18T10:39:18;95691.59;;;15.16;27.67
77723;BME280;67811;42.656;23.394;2023-02-18T10:41:56;95689.59;;;14.90;28.31
77723;BME280;67811;42.656;23.394;2023-02-18T10:44:38;95673.94;;;14.24;28.91
77723;BME280;67811;42.656;23.394;2023-02-18T10:47:19;95663.00;;;13.91;29.31
77723;BME280;67811;42.656;23.394;2023-02-18T10:49:58;95670.59;;;13.73;29.69
77723;BME280;67811;42.656;23.394;2023-02-18T10:52:33;95660.56;;;14.18;29.08
77723;BME280;67811;42.656;23.394;2023-02-18T10:55:09;95653.00;;;14.49;29.47
77723;BME280;67811;42.656;23.394;2023-02-18T10:57:47;95655.25;;;14.81;28.65
77723;BME280;67811;42.656;23.394;2023-02-18T11:00:23;95650.94;;;15.21;28.58
77723;BME280;67811;42.656;23.394;2023-02-18T11:03:12;95648.84;;;15.64;27.38
77723;BME280;67811;42.656;23.394;2023-02-18T11:05:44;95653.69;;;15.41;26.87
77723;BME280;67811;42.656;23.394;2023-02-18T11:08:18;95633.94;;;15.35;27.21
77723;BME280;67811;42.656;23.394;2023-02-18T11:10:50;95636.97;;;15.25;27.74
77723;BME280;67811;42.656;23.394;2023-02-18T11:13:25;95635.53;;;15.16;27.42
77723;BME280;67811;42.656;23.394;2023-02-18T11:16:00;95624.63;;;15.11;27.78
77723;BME280;67811;42.656;23.394;2023-02-18T11:18:37;95615.47;;;15.40;27.68
77723;BME280;67811;42.656;23.394;2023-02-18T11:21:21;95606.41;;;15.28;27.23
77723;BME280;67811;42.656;23.394;2023-02-18T11:23:54;95602.69;;;15.22;27.27
77723;BME280;67811;42.656;23.394;2023-02-18T11:26:28;95597.66;;;14.99;27.04
77723;BME280;67811;42.656;23.394;2023-02-18T11:29:01;95597.63;;;14.93;26.99
77723;BME280;67811;42.656;23.394;2023-02-18T11:31:41;95586.38;;;14.97;27.58
77723;BME280;67811;42.656;23.394;2023-02-18T11:34:15;95579.84;;;15.07;27.66
77723;BME280;67811;42.656;23.394;2023-02-18T11:36:47;95577.19;;;15.13;27.18
77723;BME280;67811;42.656;23.394;2023-02-18T11:39:21;95576.59;;;15.18;27.95
77723;BME280;67811;42.656;23.394;2023-02-18T11:41:57;95574.91;;;15.10;27.98
77723;BME280;67811;42.656;23.394;2023-02-18T11:44:31;95573.50;;;15.21;27.19
77723;BME280;67811;42.656;23.394;2023-02-18T11:47:18;95563.25;;;15.24;27.46
77723;BME280;67811;42.656;23.394;2023-02-18T11:50:13;95558.75;;;15.25;26.57
77723;BME280;67811;42.656;23.394;2023-02-18T11:52:46;95564.06;;;15.12;27.02
77723;BME280;67811;42.656;23.394;2023-02-18T11:55:20;95551.91;;;15.02;26.33
77723;BME280;67811;42.656;23.394;2023-02-18T11:57:55;95546.13;;;14.92;26.65
77723;BME280;67811;42.656;23.394;2023-02-18T12:00:36;95538.25;;;14.77;27.31
77723;BME280;67811;42.656;23.394;2023-02-18T12:03:26;95543.22;;;14.81;27.83
77723;BME280;67811;42.656;23.394;2023-02-18T12:06:02;95525.94;;;14.76;28.02
77723;BME280;67811;42.656;23.394;2023-02-18T12:08:39;95523.28;;;14.76;28.85
77723;BME280;67811;42.656;23.394;2023-02-18T12:11:23;95507.25;;;14.70;28.44
77723;BME280;67811;42.656;23.394;2023-02-18T12:13:57;95506.81;;;14.66;29.50
77723;BME280;67811;42.656;23.394;2023-02-18T12:16:34;95501.53;;;14.73;30.56
77723;BME280;67811;42.656;23.394;2023-02-18T12:19:28;95508.06;;;14.70;29.27
77723;BME280;67811;42.656;23.394;2023-02-18T12:22:09;95505.59;;;14.62;30.18
77723;BME280;67811;42.656;23.394;2023-02-18T12:24:55;95507.47;;;14.68;32.99
77723;BME280;67811;42.656;23.394;2023-02-18T12:27:37;95502.16;;;14.82;31.25
77723;BME280;67811;42.656;23.394;2023-02-18T12:30:44;95500.06;;;14.70;46.07
77723;BME280;67811;42.656;23.394;2023-02-18T12:33:25;95484.66;;;14.18;42.20
77723;BME280;67811;42.656;23.394;2023-02-18T12:36:11;95486.72;;;13.88;40.19
77723;BME280;67811;42.656;23.394;2023-02-18T12:38:53;95486.69;;;13.81;40.06
77723;BME280;67811;42.656;23.394;2023-02-18T12:41:52;95483.97;;;13.75;36.87
77723;BME280;67811;42.656;23.394;2023-02-18T12:44:32;95481.41;;;13.60;36.53
77723;BME280;67811;42.656;23.394;2023-02-18T12:50:20;95466.97;;;13.76;39.89
77723;BME280;67811;42.656;23.394;2023-02-18T12:53:12;95461.88;;;13.81;35.16
77723;BME280;67811;42.656;23.394;2023-02-18T12:55:54;95470.69;;;13.81;36.16
77723;BME280;67811;42.656;23.394;2023-02-18T12:58:37;95466.63;;;13.85;34.40
77723;BME280;67811;42.656;23.394;2023-02-18T13:01:28;95465.81;;;13.85;35.46
77723;BME280;67811;42.656;23.394;2023-02-18T13:04:14;95472.63;;;13.94;34.24
77723;BME280;67811;42.656;23.394;2023-02-18T13:07:04;95474.56;;;14.07;34.79
77723;BME280;67811;42.656;23.394;2023-02-18T13:09:51;95480.75;;;14.20;33.85
77723;BME280;67811;42.656;23.394;2023-02-18T13:12:29;95465.03;;;14.32;32.39
77723;BME280;67811;42.656;23.394;2023-02-18T13:15:12;95463.84;;;14.41;33.39
77723;BME280;67811;42.656;23.394;2023-02-18T13:17:46;95460.41;;;14.54;32.71
77723;BME280;67811;42.656;23.394;2023-02-18T13:20:22;95454.50;;;14.59;31.85
77723;BME280;67811;42.656;23.394;2023-02-18T13:22:55;95460.28;;;14.69;31.59
77723;BME280;67811;42.656;23.394;2023-02-18T13:25:28;95456.38;;;14.71;32.84
77723;BME280;67811;42.656;23.394;2023-02-18T13:28:06;95452.28;;;14.82;30.44
77723;BME280;67811;42.656;23.394;2023-02-18T13:30:44;95464.44;;;14.91;31.40
77723;BME280;67811;42.656;23.394;2023-02-18T13:33:21;95463.84;;;15.02;30.88
77723;BME280;67811;42.656;23.394;2023-02-18T13:35:59;95473.91;;;15.07;30.47
77723;BME280;67811;42.656;23.394;2023-02-18T13:39:02;95459.53;;;15.21;29.19
77723;BME280;67811;42.656;23.394;2023-02-18T13:41:37;95467.16;;;15.18;30.12
77723;BME280;67811;42.656;23.394;2023-02-18T13:44:14;95464.25;;;15.06;30.94
77723;BME280;67811;42.656;23.394;2023-02-18T13:46:59;95472.22;;;14.93;33.89
77723;BME280;67811;42.656;23.394;2023-02-18T13:49:32;95458.66;;;14.74;32.25
77723;BME280;67811;42.656;23.394;2023-02-18T13:52:03;95466.81;;;14.66;32.15